West Palm Beach, FL (33401)

2:28 PM EDT on August 31, 2015 (GMT -0400)
Palm Beach, FL | | Change Station
CLOSE
Current Station
Personal Weather Station
Location: Palm Beach, FL
Elevation: 8 ft
Nearby Weather Stations

Elev 8 ft 26.71 °N, 80.04 °W | Updated 0 second ago

Scattered Clouds
Scattered Clouds
90.5 °F
Feels Like 107 °F
N
2.9
Wind Variable Wind from ENE
Gusts 11.0 mph

Today
High -- | Low -- °F
--% Chance of Precip.
Yesterday
High -- | Low -- °F
Precip. -- in
6:59 AM 7:41 PM
Waning Gibbous, 94% visible
Pressure 30.05 in
Visibility 10.0 miles
Clouds Scattered Clouds 3100 ft
Scattered Clouds 3900 ft
Heat Index 107 °F
Dew Point 79 °F
Humidity 70%
Rainfall in
Snow Depth Not available.
UV 11 out of 12
Pollen .60 out of 12
Air Quality Not available.
Flu Activity Not available.
METAR KPBI 311753Z 16014KT 10SM SCT031 SCT039 32/24 A3005 RMK AO2 SLP176 T03170239 10322 20278 58004 $
Pressure 30.05 in
Visibility 10.0 miles
Clouds Scattered Clouds 3100 ft
Scattered Clouds 3900 ft
Heat Index 107 °F
Dew Point 79 °F
Humidity 70%
Rainfall in
Snow Depth Not available.
UV 11 out of 12
Pollen .60 out of 12
Air Quality Not available.
Flu Activity Not available.
METAR KPBI 311753Z 16014KT 10SM SCT031 SCT039 32/24 A3005 RMK AO2 SLP176 T03170239 10322 20278 58004 $

10-Day Weather Forecast

×

Almanac

Astronomy

Aug. 31, 2015 Rise Set
Actual Time
Civil Twilight
Nautical Twilight
Astronomical Twilight
Moon
Length of Visible Light
Length of Day
Tomorrow will be .
, % of the Moon is Illuminated

Today's Extremes

State Highs State Lows

Community

WunderPhotos

Upload Photos

1,851,330 photos uploaded!

WunderBlogs® & News

Nearby

Air Quality

  Air Quality AQ Index Pollutant
Not available.

Snow Depth

Station Depth Elevation

Earthquake Activity

City Distance Mag. Time & Date
Minimum magnitude displayed is 2.5.

Coastal Water Temperatures

Place Temperature

Stations

Nearby Weather Stations

Station Location Temp. Windchill Dew Point Humidity Wind Precip. Elev Updated Type